Time;durP1;ratioP1;P1;durP2;ratioP2;P2;SDS_P1;SDS_P2;PMS_P1;PMS_P2;Temp;Humidity;BMP_temperature;BMP_pressure;BME280_temperature;BME280_humidity;BME280_pressure;Samples;Min_cycle;Max_cycle;Signal;HPM_P1;HPM_P2
2022/11/23 00:01:28;;;;;;;7.95;1.48;;;7.80;99.90;;;;;;7329388;32;20205;-60
2022/11/23 00:05:30;;;;;;;4.45;1.10;;;7.90;99.90;;;;;;7331542;32;20153;-59
2022/11/23 00:09:32;;;;;;;5.40;1.30;;;7.90;99.90;;;;;;7331657;32;20142;-59
2022/11/23 00:13:35;;;;;;;4.87;0.90;;;7.90;99.90;;;;;;7321116;32;20903;-59
2022/11/23 00:17:37;;;;;;;5.35;1.08;;;8.00;99.90;;;;;;7329253;32;20229;-59
2022/11/23 00:21:38;;;;;;;4.95;1.08;;;7.90;99.90;;;;;;7323186;32;20103;-60
2022/11/23 00:25:44;;;;;;;8.70;1.23;;;8.00;99.90;;;;;;7325414;32;20696;-60
2022/11/23 00:29:46;;;;;;;3.85;0.80;;;8.10;99.90;;;;;;7331903;32;20160;-61
2022/11/23 00:33:53;;;;;;;5.78;1.08;;;8.10;99.90;;;;;;7329467;32;20119;-60
2022/11/23 00:37:55;;;;;;;7.00;0.95;;;8.10;99.90;;;;;;7332536;32;20149;-60
2022/11/23 00:41:56;;;;;;;6.85;1.10;;;8.10;99.90;;;;;;7326589;32;20100;-60
2022/11/23 00:46:06;;;;;;;3.85;0.80;;;8.20;99.90;;;;;;7330253;32;20528;-60
2022/11/23 00:50:08;;;;;;;4.85;1.00;;;8.30;99.90;;;;;;7331866;32;20154;-60
2022/11/23 00:54:09;;;;;;;3.30;0.85;;;8.20;99.90;;;;;;7323471;32;20194;-60
2022/11/23 00:58:11;;;;;;;4.15;0.73;;;8.30;99.90;;;;;;7336676;32;20100;-60
2022/11/23 01:02:13;;;;;;;3.45;1.00;;;8.30;99.90;;;;;;7333614;32;20534;-59
2022/11/23 01:06:17;;;;;;;3.95;1.00;;;8.30;99.90;;;;;;7337727;32;20491;-60
2022/11/23 01:10:19;;;;;;;3.55;1.02;;;8.40;99.90;;;;;;7332242;32;20202;-60
2022/11/23 01:14:21;;;;;;;5.28;0.85;;;8.40;99.90;;;;;;7336598;32;20130;-60
2022/11/23 01:18:24;;;;;;;3.25;0.95;;;8.50;99.90;;;;;;7333935;32;20178;-60
2022/11/23 01:22:25;;;;;;;4.85;0.80;;;8.50;99.90;;;;;;7334688;32;20201;-60
2022/11/23 01:26:27;;;;;;;5.78;1.20;;;8.50;99.90;;;;;;7333471;32;20141;-59
2022/11/23 01:30:29;;;;;;;5.93;0.90;;;8.60;99.90;;;;;;7330833;32;20529;-59
2022/11/23 01:34:30;;;;;;;4.78;1.00;;;8.60;99.90;;;;;;7335189;32;20124;-59
2022/11/23 01:38:32;;;;;;;3.70;1.05;;;8.60;99.90;;;;;;7332198;32;20115;-59
2022/11/23 01:42:43;;;;;;;3.08;0.90;;;8.50;99.90;;;;;;7332469;32;20286;-60
2022/11/23 01:46:44;;;;;;;2.90;0.80;;;8.70;99.90;;;;;;7333762;32;20099;-60
2022/11/23 01:50:50;;;;;;;2.60;0.60;;;8.60;99.90;;;;;;7332772;32;20108;-60
2022/11/23 01:54:55;;;;;;;3.37;0.80;;;8.50;99.90;;;;;;7335339;32;20176;-59
2022/11/23 01:59:00;;;;;;;6.62;0.90;;;8.60;99.90;;;;;;7332985;32;20118;-60
2022/11/23 02:03:04;;;;;;;1.95;0.60;;;8.60;99.90;;;;;;7335299;32;20104;-60
2022/11/23 02:07:05;;;;;;;2.85;0.85;;;8.60;99.90;;;;;;7333286;32;20108;-59
2022/11/23 02:11:10;;;;;;;5.12;0.90;;;8.60;99.90;;;;;;7331225;32;20119;-60
2022/11/23 02:15:12;;;;;;;3.45;0.77;;;8.60;99.90;;;;;;7332053;32;20100;-59
2022/11/23 02:19:40;;;;;;;4.45;1.12;;;8.70;99.90;;;;;;7325148;32;20264;-59
2022/11/23 02:23:50;;;;;;;3.60;0.82;;;8.70;99.90;;;;;;7333364;32;20100;-59
2022/11/23 02:27:53;;;;;;;4.75;1.37;;;8.60;99.90;;;;;;7329281;32;20117;-59
2022/11/23 02:31:54;;;;;;;8.45;1.00;;;8.70;99.90;;;;;;7330727;32;20194;-59
2022/11/23 02:35:59;;;;;;;8.38;1.23;;;8.70;99.90;;;;;;7329001;32;20142;-59
2022/11/23 02:40:10;;;;;;;5.15;1.02;;;8.60;99.90;;;;;;7326941;32;20100;-59
2022/11/23 02:44:47;;;;;;;5.12;1.00;;;8.70;99.90;;;;;;7330816;32;20118;-59
2022/11/23 02:48:49;;;;;;;5.78;1.15;;;8.70;99.90;;;;;;7332568;32;20106;-59
2022/11/23 02:52:50;;;;;;;6.35;0.95;;;8.60;99.90;;;;;;7326963;32;20103;-57
2022/11/23 02:56:52;;;;;;;4.03;1.00;;;8.70;99.90;;;;;;7330084;32;20863;-58
2022/11/23 03:00:54;;;;;;;3.58;1.00;;;8.70;99.90;;;;;;7332334;32;20212;-58
2022/11/23 03:04:56;;;;;;;4.32;1.00;;;8.70;99.90;;;;;;7333058;32;20244;-58
2022/11/23 03:08:57;;;;;;;3.62;0.65;;;8.70;99.90;;;;;;7323914;32;20471;-59
2022/11/23 03:12:59;;;;;;;4.35;0.98;;;8.60;99.90;;;;;;7324321;32;20130;-59
2022/11/23 03:17:01;;;;;;;7.85;1.10;;;8.60;99.90;;;;;;7331400;32;20107;-59
2022/11/23 03:21:04;;;;;;;5.87;1.10;;;8.50;99.90;;;;;;7328816;32;20158;-60
2022/11/23 03:25:06;;;;;;;3.75;0.70;;;8.30;99.90;;;;;;7329132;32;20142;-58
2022/11/23 03:29:07;;;;;;;2.35;0.80;;;8.30;99.90;;;;;;7329272;32;20104;-59
2022/11/23 03:33:09;;;;;;;4.68;1.10;;;8.30;99.90;;;;;;7328897;32;20233;-59
2022/11/23 03:37:11;;;;;;;4.78;1.10;;;8.20;99.90;;;;;;7333109;32;20146;-59
2022/11/23 03:41:12;;;;;;;7.72;1.20;;;8.10;99.90;;;;;;7330891;32;20096;-59
2022/11/23 03:45:14;;;;;;;5.78;0.90;;;8.20;99.90;;;;;;7328647;32;20225;-59
2022/11/23 03:49:16;;;;;;;6.62;1.23;;;8.20;99.90;;;;;;7332418;32;20107;-59
2022/11/23 03:53:18;;;;;;;4.25;1.17;;;8.20;99.90;;;;;;7331134;32;20107;-59
2022/11/23 03:57:19;;;;;;;9.82;1.05;;;8.10;99.90;;;;;;7330500;32;20122;-60
2022/11/23 04:01:21;;;;;;;4.40;0.93;;;8.10;99.90;;;;;;7327244;32;20104;-59
2022/11/23 04:05:23;;;;;;;4.80;1.00;;;8.10;99.90;;;;;;7330557;32;20103;-61
2022/11/23 04:09:25;;;;;;;7.75;1.20;;;8.10;99.90;;;;;;7317169;32;20443;-59
2022/11/23 04:13:27;;;;;;;6.82;0.90;;;8.00;99.90;;;;;;7330434;32;20103;-61
2022/11/23 04:17:28;;;;;;;5.95;1.12;;;8.00;99.90;;;;;;7329734;32;20099;-59
2022/11/23 04:21:30;;;;;;;8.75;1.05;;;8.10;99.90;;;;;;7329122;32;20123;-59
2022/11/23 04:25:32;;;;;;;8.38;1.30;;;8.30;99.90;;;;;;7334761;32;20157;-59
2022/11/23 04:29:33;;;;;;;9.13;1.35;;;8.20;99.90;;;;;;7336680;32;20646;-59
2022/11/23 04:33:35;;;;;;;6.82;1.08;;;8.10;99.90;;;;;;7336564;32;20221;-59
2022/11/23 04:37:37;;;;;;;6.80;0.98;;;8.10;99.90;;;;;;7337044;32;20210;-59
2022/11/23 04:41:39;;;;;;;6.03;0.90;;;8.00;99.90;;;;;;7334381;32;20111;-59
2022/11/23 04:45:41;;;;;;;7.20;1.50;;;8.00;99.90;;;;;;7331933;32;20122;-59
2022/11/23 04:49:42;;;;;;;10.88;1.45;;;7.90;99.90;;;;;;7329348;32;20108;-59
2022/11/23 04:53:44;;;;;;;11.02;1.40;;;7.90;99.90;;;;;;7329506;32;20114;-59
2022/11/23 04:57:45;;;;;;;7.82;1.42;;;7.90;99.90;;;;;;7334416;32;20264;-59
2022/11/23 05:01:48;;;;;;;8.70;1.30;;;7.90;99.90;;;;;;7329518;32;20134;-61
2022/11/23 05:05:50;;;;;;;8.68;1.25;;;7.80;99.90;;;;;;7334266;32;20107;-60
2022/11/23 05:09:51;;;;;;;7.80;1.40;;;7.90;99.90;;;;;;7333593;32;20813;-59
2022/11/23 05:13:53;;;;;;;9.77;1.25;;;7.90;99.90;;;;;;7331692;32;20161;-59
2022/11/23 05:18:05;;;;;;;7.55;2.05;;;7.80;99.90;;;;;;7332985;32;20284;-60
2022/11/23 05:22:06;;;;;;;4.07;1.02;;;7.90;99.90;;;;;;7332472;32;20112;-60
2022/11/23 05:26:09;;;;;;;9.00;1.50;;;7.90;99.90;;;;;;7332873;32;20126;-60
2022/11/23 05:30:11;;;;;;;8.07;1.62;;;7.90;99.90;;;;;;7331627;32;20121;-60
2022/11/23 05:34:13;;;;;;;8.88;1.55;;;8.00;99.90;;;;;;7324802;32;20178;-59
2022/11/23 05:38:15;;;;;;;6.07;1.02;;;8.10;99.90;;;;;;7334969;32;20228;-59
2022/11/23 05:42:16;;;;;;;4.05;1.65;;;8.10;99.90;;;;;;7336094;32;20130;-59
2022/11/23 05:46:18;;;;;;;7.18;1.20;;;8.10;99.90;;;;;;7330244;32;20121;-60
2022/11/23 05:50:22;;;;;;;12.37;1.95;;;8.00;99.90;;;;;;7334505;32;20126;-59
2022/11/23 05:54:23;;;;;;;7.50;1.23;;;8.00;99.90;;;;;;7330323;32;20222;-59
2022/11/23 05:58:25;;;;;;;7.75;1.60;;;7.90;99.90;;;;;;7315040;32;20221;-59
2022/11/23 06:02:27;;;;;;;10.40;1.73;;;8.00;99.90;;;;;;7325801;32;20177;-61
2022/11/23 06:06:28;;;;;;;6.25;1.95;;;7.90;99.90;;;;;;7333099;32;20121;-59
2022/11/23 06:10:30;;;;;;;11.15;1.98;;;7.90;99.90;;;;;;7334674;32;20175;-59
2022/11/23 06:14:32;;;;;;;5.15;1.75;;;7.90;99.90;;;;;;7317787;32;20107;-60
2022/11/23 06:18:34;;;;;;;9.18;1.27;;;7.80;99.90;;;;;;7328461;32;20099;-59
2022/11/23 06:22:36;;;;;;;5.03;1.37;;;7.80;99.90;;;;;;7321889;32;20182;-62
2022/11/23 06:26:37;;;;;;;8.40;1.25;;;7.70;99.90;;;;;;7312496;32;20581;-60
2022/11/23 06:30:39;;;;;;;4.70;1.17;;;7.80;99.90;;;;;;7330840;32;20246;-60
2022/11/23 06:34:41;;;;;;;7.35;1.73;;;7.70;99.90;;;;;;7316547;32;20116;-61
2022/11/23 06:38:43;;;;;;;7.78;1.30;;;7.70;99.90;;;;;;7330299;32;20150;-61
2022/11/23 06:42:44;;;;;;;10.95;1.92;;;7.80;99.90;;;;;;7334629;32;20133;-60
2022/11/23 06:46:46;;;;;;;7.60;1.17;;;7.70;99.90;;;;;;7330509;32;20182;-61
2022/11/23 06:50:48;;;;;;;8.02;1.62;;;7.70;99.90;;;;;;7332257;32;20783;-61
2022/11/23 06:54:50;;;;;;;9.98;1.90;;;7.70;99.90;;;;;;7331236;32;20513;-61
2022/11/23 06:58:51;;;;;;;15.73;2.40;;;7.60;99.90;;;;;;7328173;32;20092;-61
2022/11/23 07:02:54;;;;;;;12.52;2.08;;;7.60;99.90;;;;;;7326542;32;20121;-61
2022/11/23 07:07:24;;;;;;;6.28;1.52;;;7.70;99.90;;;;;;7425178;31;20507;-63
2022/11/23 07:11:25;;;;;;;9.02;1.95;;;7.70;99.90;;;;;;7395175;32;20417;-62
2022/11/23 07:15:27;;;;;;;9.43;1.80;;;7.60;99.90;;;;;;7388482;32;20561;-63
2022/11/23 07:19:28;;;;;;;11.18;1.62;;;7.70;99.90;;;;;;7394381;32;20222;-62
2022/11/23 07:23:30;;;;;;;8.95;1.83;;;7.70;99.90;;;;;;7389239;32;20103;-62
2022/11/23 07:27:32;;;;;;;8.23;1.30;;;7.60;99.90;;;;;;7391634;32;20201;-63
2022/11/23 07:31:34;;;;;;;5.60;1.58;;;7.70;99.90;;;;;;7388654;32;21357;-62
2022/11/23 07:35:37;;;;;;;9.55;1.50;;;7.60;99.90;;;;;;7393325;32;20119;-62
2022/11/23 07:39:39;;;;;;;6.30;1.65;;;7.70;99.90;;;;;;7396128;32;20918;-63
2022/11/23 07:43:58;;;;;;;6.50;1.67;;;7.70;99.90;;;;;;7399116;32;20133;-61
2022/11/23 07:48:02;;;;;;;11.68;1.80;;;7.80;99.90;;;;;;7397789;32;20145;-62
2022/11/23 07:52:04;;;;;;;4.72;1.20;;;7.80;99.90;;;;;;7391753;32;20221;-61
2022/11/23 07:56:06;;;;;;;8.93;2.17;;;7.80;99.90;;;;;;7394208;32;20125;-62
2022/11/23 08:00:08;;;;;;;6.85;1.48;;;7.90;99.90;;;;;;7386206;32;20137;-63
2022/11/23 08:04:09;;;;;;;7.65;1.50;;;7.90;99.90;;;;;;7386420;32;20108;-63
2022/11/23 08:08:11;;;;;;;8.25;1.50;;;8.00;99.90;;;;;;7390138;32;20106;-62
2022/11/23 08:12:13;;;;;;;7.18;1.25;;;8.10;99.90;;;;;;7391965;32;20608;-62
2022/11/23 08:16:14;;;;;;;4.90;1.12;;;8.20;99.90;;;;;;7381735;32;20107;-62
2022/11/23 08:20:16;;;;;;;10.18;1.52;;;8.30;99.90;;;;;;7366226;32;20130;-61
2022/11/23 08:24:18;;;;;;;11.85;1.30;;;8.40;99.90;;;;;;7375688;32;20115;-63
2022/11/23 08:28:20;;;;;;;9.18;1.67;;;8.60;99.90;;;;;;7375833;32;20103;-63
2022/11/23 08:32:22;;;;;;;5.40;1.00;;;8.70;99.90;;;;;;7373992;32;20156;-62
2022/11/23 08:36:23;;;;;;;11.48;1.77;;;8.80;99.90;;;;;;7366434;32;20601;-63
2022/11/23 08:40:25;;;;;;;6.50;1.20;;;8.70;99.90;;;;;;7366738;32;20115;-62
2022/11/23 08:44:27;;;;;;;7.70;1.35;;;8.60;99.90;;;;;;7377845;32;20542;-64
2022/11/23 08:48:29;;;;;;;9.70;1.35;;;8.60;99.90;;;;;;7374571;32;20834;-63
2022/11/23 08:52:30;;;;;;;8.30;1.70;;;8.60;99.90;;;;;;7367288;32;20111;-62
2022/11/23 08:56:32;;;;;;;8.52;1.73;;;8.60;99.90;;;;;;7375015;32;20418;-64
2022/11/23 09:00:34;;;;;;;9.73;2.10;;;8.50;99.90;;;;;;7372081;32;20628;-63
2022/11/23 09:04:36;;;;;;;9.35;1.90;;;8.40;99.90;;;;;;7375842;32;20467;-63
2022/11/23 09:08:38;;;;;;;8.55;1.98;;;8.50;99.90;;;;;;7382117;32;20739;-63
2022/11/23 09:12:40;;;;;;;7.30;1.33;;;8.50;99.90;;;;;;7380275;32;20111;-62
2022/11/23 09:16:41;;;;;;;7.22;1.45;;;8.60;99.90;;;;;;7379230;32;20102;-63
2022/11/23 09:20:43;;;;;;;8.60;1.17;;;8.60;99.90;;;;;;7375667;32;20295;-63
2022/11/23 09:24:45;;;;;;;12.85;1.77;;;8.60;99.90;;;;;;7371791;32;20099;-62
2022/11/23 09:28:46;;;;;;;8.60;1.80;;;8.70;99.90;;;;;;7376314;32;20191;-64
2022/11/23 09:32:48;;;;;;;10.45;1.65;;;8.70;99.90;;;;;;7366404;32;20458;-63
2022/11/23 09:36:50;;;;;;;11.07;1.67;;;8.70;99.90;;;;;;7375984;32;20244;-63
2022/11/23 09:41:08;;;;;;;10.43;2.20;;;8.70;99.90;;;;;;7372374;32;20098;-62
2022/11/23 09:45:35;;;;;;;10.00;1.60;;;8.80;99.90;;;;;;7373336;32;20278;-62
2022/11/23 09:50:02;;;;;;;8.10;1.85;;;8.90;99.90;;;;;;7375704;32;20211;-63
2022/11/23 09:54:12;;;;;;;11.27;1.67;;;8.90;99.90;;;;;;7371715;32;20111;-63
2022/11/23 09:58:18;;;;;;;13.30;1.67;;;8.90;99.90;;;;;;7375443;32;20252;-63
2022/11/23 10:02:24;;;;;;;11.32;1.70;;;9.00;99.90;;;;;;7385995;32;20600;-63
2022/11/23 10:06:28;;;;;;;14.98;2.10;;;8.90;99.90;;;;;;7366923;32;20134;-63
2022/11/23 10:10:36;;;;;;;8.82;1.92;;;9.00;99.90;;;;;;7377061;32;20150;-63
2022/11/23 10:14:48;;;;;;;11.57;1.40;;;9.00;99.90;;;;;;7385499;32;20131;-62
2022/11/23 10:19:03;;;;;;;8.30;1.50;;;9.00;99.90;;;;;;7382659;32;20208;-63
2022/11/23 10:23:30;;;;;;;8.55;2.35;;;9.10;99.90;;;;;;7364599;32;20174;-62
2022/11/23 10:27:32;;;;;;;10.35;1.30;;;9.20;99.90;;;;;;7365072;32;20156;-64
2022/11/23 10:31:34;;;;;;;14.23;1.62;;;9.10;99.90;;;;;;7385599;32;20191;-64
2022/11/23 10:35:37;;;;;;;11.82;1.83;;;9.20;99.90;;;;;;7386969;32;20161;-62
2022/11/23 10:39:38;;;;;;;8.93;1.87;;;9.00;99.90;;;;;;7371051;32;20156;-63
2022/11/23 10:44:10;;;;;;;8.52;1.52;;;9.20;99.90;;;;;;7372392;32;20126;-63
2022/11/23 10:48:20;;;;;;;6.43;1.75;;;9.10;99.90;;;;;;7375144;32;20535;-62
2022/11/23 10:52:29;;;;;;;7.68;1.65;;;9.30;99.90;;;;;;7378522;32;20554;-63
2022/11/23 10:56:32;;;;;;;8.15;1.50;;;9.30;99.90;;;;;;7375511;32;20153;-63
2022/11/23 11:00:34;;;;;;;6.45;1.33;;;9.20;99.90;;;;;;7361223;32;20225;-63
2022/11/23 11:04:35;;;;;;;10.07;1.50;;;9.20;99.90;;;;;;7381190;32;20540;-63
2022/11/23 11:08:53;;;;;;;7.60;1.80;;;9.20;99.90;;;;;;7380072;32;20571;-63
2022/11/23 11:12:55;;;;;;;11.15;2.03;;;9.30;99.90;;;;;;7361965;32;20506;-62
2022/11/23 11:16:57;;;;;;;11.20;1.87;;;9.20;99.90;;;;;;7348317;32;20116;-64
2022/11/23 11:21:05;;;;;;;9.50;1.55;;;9.30;99.90;;;;;;7375967;32;20146;-62
2022/11/23 11:25:27;;;;;;;11.05;1.50;;;9.30;99.90;;;;;;7386775;32;20125;-63
2022/11/23 11:29:39;;;;;;;6.15;1.10;;;9.20;99.90;;;;;;7371213;32;20126;-62
2022/11/23 11:34:11;;;;;;;6.75;1.15;;;9.30;99.90;;;;;;7361321;32;20103;-62
2022/11/23 11:38:22;;;;;;;6.25;1.17;;;9.30;99.90;;;;;;7348543;32;20450;-62
2022/11/23 11:42:39;;;;;;;10.30;1.20;;;9.30;99.90;;;;;;7376334;32;20715;-63
2022/11/23 11:46:46;;;;;;;4.90;1.07;;;9.40;99.90;;;;;;7370155;32;20174;-63
2022/11/23 11:50:54;;;;;;;7.90;1.20;;;9.60;99.90;;;;;;7376419;32;20103;-62
2022/11/23 11:55:17;;;;;;;8.27;1.20;;;9.50;99.90;;;;;;7379451;32;20095;-62
2022/11/23 11:59:33;;;;;;;9.95;1.50;;;9.50;99.90;;;;;;7377016;32;20533;-62
2022/11/23 12:03:50;;;;;;;7.12;1.15;;;9.70;99.90;;;;;;7369977;32;20111;-62
2022/11/23 12:08:01;;;;;;;7.93;1.33;;;9.80;99.90;;;;;;7368299;32;20111;-62
2022/11/23 12:12:10;;;;;;;12.18;1.48;;;9.70;99.90;;;;;;7378882;32;20259;-62
2022/11/23 12:16:26;;;;;;;5.60;1.17;;;9.80;99.90;;;;;;7376695;32;20124;-62
2022/11/23 12:20:39;;;;;;;8.55;1.00;;;9.90;99.90;;;;;;7379256;32;20106;-62
2022/11/23 12:24:44;;;;;;;9.63;1.12;;;10.00;99.90;;;;;;7372026;32;20107;-61
2022/11/23 12:28:52;;;;;;;6.55;1.40;;;10.00;99.90;;;;;;7377294;32;20617;-63
2022/11/23 12:32:56;;;;;;;8.88;0.95;;;10.00;99.90;;;;;;7372050;32;20201;-61
2022/11/23 12:37:24;;;;;;;3.67;0.70;;;10.00;99.90;;;;;;7373468;32;20102;-60
2022/11/23 12:41:28;;;;;;;4.18;0.90;;;10.00;99.90;;;;;;7340787;32;20708;-60
2022/11/23 12:45:45;;;;;;;4.57;0.90;;;10.00;99.90;;;;;;7374027;32;20174;-61
2022/11/23 12:49:57;;;;;;;6.62;0.75;;;10.00;99.90;;;;;;7375128;32;20233;-62
2022/11/23 12:54:24;;;;;;;5.65;1.55;;;10.10;99.90;;;;;;7377150;32;20133;-60
2022/11/23 12:58:31;;;;;;;7.87;1.00;;;10.20;99.90;;;;;;7377377;32;20465;-60
2022/11/23 13:02:54;;;;;;;8.90;1.80;;;10.20;99.90;;;;;;7367956;32;20130;-61
2022/11/23 13:07:41;;;;;;;7.80;1.62;;;10.10;99.90;;;;;;7374723;32;20151;-60
2022/11/23 13:12:01;;;;;;;7.25;1.35;;;10.00;99.90;;;;;;7377746;32;20142;-60
2022/11/23 13:16:06;;;;;;;6.80;1.05;;;9.80;99.90;;;;;;7367886;32;20107;-62
2022/11/23 13:20:27;;;;;;;6.37;1.08;;;9.80;99.90;;;;;;7380624;32;20586;-60
2022/11/23 13:24:34;;;;;;;9.10;1.40;;;9.80;99.90;;;;;;7366095;32;35637;-60
2022/11/23 13:28:36;;;;;;;10.02;1.40;;;9.90;99.90;;;;;;7377531;32;21520;-61
2022/11/23 13:32:38;;;;;;;6.30;1.48;;;9.90;99.90;;;;;;7377331;32;20116;-60
2022/11/23 13:36:42;;;;;;;3.78;1.00;;;9.90;99.90;;;;;;7371762;32;20265;-60
2022/11/23 13:41:32;;;;;;;7.43;1.23;;;9.80;99.90;;;;;;7376168;32;20170;-60
2022/11/23 13:45:37;;;;;;;5.87;1.20;;;9.80;99.90;;;;;;7380977;32;20210;-61
2022/11/23 13:49:51;;;;;;;7.05;1.50;;;9.80;99.90;;;;;;7375674;32;20137;-61
2022/11/23 13:54:21;;;;;;;5.22;1.10;;;9.90;99.90;;;;;;7384033;32;20436;-60
2022/11/23 13:58:23;;;;;;;5.43;0.95;;;10.00;99.90;;;;;;7362430;32;20130;-60
2022/11/23 14:02:28;;;;;;;7.90;1.17;;;9.80;99.90;;;;;;7375949;32;20107;-60
2022/11/23 14:06:55;;;;;;;6.75;1.30;;;9.70;99.90;;;;;;7374597;32;20137;-61
2022/11/23 14:10:58;;;;;;;6.65;0.90;;;9.50;99.90;;;;;;7382302;32;20504;-63
2022/11/23 14:15:19;;;;;;;3.28;1.12;;;9.50;99.90;;;;;;7382047;32;20515;-62
2022/11/23 14:20:00;;;;;;;7.62;1.50;;;9.40;99.90;;;;;;7377300;32;20115;-61
2022/11/23 14:25:04;;;;;;;8.13;1.27;;;9.40;99.90;;;;;;7362791;32;20137;-60
2022/11/23 14:29:45;;;;;;;5.62;1.62;;;9.20;99.90;;;;;;7314384;32;21004;-60
2022/11/23 14:34:17;;;;;;;4.70;1.33;;;9.30;99.90;;;;;;7354165;32;20247;-61
2022/11/23 14:38:49;;;;;;;6.70;1.35;;;9.20;99.90;;;;;;7365126;32;20112;-60
2022/11/23 14:42:53;;;;;;;5.35;1.73;;;9.10;99.90;;;;;;7364352;32;20154;-64
2022/11/23 14:47:02;;;;;;;6.70;1.80;;;9.00;99.90;;;;;;7365427;32;20576;-62
2022/11/23 14:51:11;;;;;;;7.57;1.42;;;9.00;99.90;;;;;;7364369;32;20353;-63
2022/11/23 14:55:27;;;;;;;3.05;1.33;;;9.00;99.90;;;;;;7372260;32;20527;-64
2022/11/23 14:59:34;;;;;;;5.43;1.47;;;9.00;99.90;;;;;;7364593;32;20111;-63
2022/11/23 15:03:36;;;;;;;5.87;1.10;;;9.00;99.90;;;;;;7363596;32;20133;-63
2022/11/23 15:08:17;;;;;;;3.12;1.10;;;9.10;99.90;;;;;;7367884;32;20202;-62
2022/11/23 15:12:23;;;;;;;6.78;1.80;;;9.20;99.90;;;;;;7366941;32;20103;-63
2022/11/23 15:16:25;;;;;;;5.22;1.30;;;9.20;99.90;;;;;;7366763;32;20102;-63
2022/11/23 15:20:43;;;;;;;5.18;1.37;;;9.20;99.90;;;;;;7357642;32;20457;-64
2022/11/23 15:24:47;;;;;;;3.92;1.17;;;9.20;99.90;;;;;;7368864;32;20134;-62
2022/11/23 15:28:49;;;;;;;4.80;1.40;;;9.20;99.90;;;;;;7369743;32;20126;-63
2022/11/23 15:32:59;;;;;;;6.30;1.45;;;9.10;99.90;;;;;;7374608;32;20096;-62
2022/11/23 15:37:01;;;;;;;4.57;1.30;;;9.20;99.90;;;;;;7361531;32;20197;-63
2022/11/23 15:41:04;;;;;;;5.18;1.62;;;9.20;99.90;;;;;;7365265;32;20130;-62
2022/11/23 15:45:55;;;;;;;6.85;1.37;;;9.00;99.90;;;;;;7373602;32;20103;-59
2022/11/23 15:50:07;;;;;;;5.35;1.42;;;8.70;99.90;;;;;;7374088;32;20103;-59
2022/11/23 15:54:22;;;;;;;7.03;1.85;;;8.50;99.90;;;;;;7372442;32;20111;-60
2022/11/23 15:58:24;;;;;;;6.75;1.70;;;8.40;99.90;;;;;;7371905;32;20125;-59
2022/11/23 16:02:29;;;;;;;6.95;1.90;;;8.30;99.90;;;;;;7361969;32;20218;-59
2022/11/23 16:06:38;;;;;;;6.80;1.52;;;8.20;99.90;;;;;;7372776;32;20735;-59
2022/11/23 16:10:53;;;;;;;7.85;1.42;;;8.00;99.90;;;;;;7381619;32;20103;-60
2022/11/23 16:15:31;;;;;;;7.72;1.87;;;7.90;99.90;;;;;;7371031;32;20203;-60
2022/11/23 16:19:33;;;;;;;11.77;1.80;;;7.90;99.90;;;;;;7366182;32;20147;-60
2022/11/23 16:23:47;;;;;;;6.68;1.73;;;7.80;99.90;;;;;;7372622;32;20175;-59
2022/11/23 16:27:58;;;;;;;9.05;2.15;;;7.70;99.90;;;;;;7376290;32;20099;-60
2022/11/23 16:32:04;;;;;;;12.15;1.50;;;7.70;99.90;;;;;;7372425;32;20103;-60
2022/11/23 16:36:05;;;;;;;9.77;2.17;;;7.70;99.90;;;;;;7370457;32;20138;-59
2022/11/23 16:40:08;;;;;;;8.48;2.00;;;7.70;99.90;;;;;;7376700;32;20117;-60
2022/11/23 16:44:09;;;;;;;9.77;2.35;;;7.60;99.90;;;;;;7367962;32;20221;-58
2022/11/23 16:48:26;;;;;;;7.20;1.90;;;7.60;99.90;;;;;;7381238;32;20552;-59
2022/11/23 16:52:27;;;;;;;6.70;1.60;;;7.70;99.90;;;;;;7374275;32;20107;-60
2022/11/23 16:56:29;;;;;;;8.63;1.40;;;7.60;99.90;;;;;;7374737;32;20625;-60
2022/11/23 17:00:32;;;;;;;6.45;1.75;;;7.60;99.90;;;;;;7376823;32;20108;-59
2022/11/23 17:04:34;;;;;;;4.90;1.75;;;7.60;99.90;;;;;;7371298;32;20107;-59
2022/11/23 17:08:36;;;;;;;8.32;2.00;;;7.50;99.90;;;;;;7378643;32;20205;-59
2022/11/23 17:12:39;;;;;;;8.25;2.00;;;7.60;99.90;;;;;;7377610;32;20102;-62
2022/11/23 17:16:41;;;;;;;7.18;1.62;;;7.50;99.90;;;;;;7379524;32;20103;-60
2022/11/23 17:20:43;;;;;;;9.45;1.95;;;7.60;99.90;;;;;;7380877;32;20107;-59
2022/11/23 17:24:46;;;;;;;3.97;1.45;;;7.50;99.90;;;;;;7376078;32;20202;-59
2022/11/23 17:28:48;;;;;;;6.22;1.40;;;7.50;99.90;;;;;;7379140;32;20221;-62
2022/11/23 17:32:49;;;;;;;7.90;1.80;;;7.50;99.90;;;;;;7377347;32;20125;-60
2022/11/23 17:36:51;;;;;;;6.82;1.83;;;7.50;99.90;;;;;;7381708;32;20103;-61
2022/11/23 17:40:53;;;;;;;8.23;2.12;;;7.50;99.90;;;;;;7372905;32;20157;-59
2022/11/23 17:44:54;;;;;;;4.75;1.60;;;7.50;99.90;;;;;;7369367;32;20236;-59
2022/11/23 17:48:57;;;;;;;8.40;1.52;;;7.50;99.90;;;;;;7365931;32;20130;-59
2022/11/23 17:52:59;;;;;;;7.12;1.75;;;7.50;99.90;;;;;;7371857;32;20174;-60
2022/11/23 17:57:01;;;;;;;6.82;1.70;;;7.50;99.90;;;;;;7367715;32;20210;-57
2022/11/23 18:01:03;;;;;;;6.75;1.62;;;7.60;99.90;;;;;;7364121;32;20490;-60
2022/11/23 18:05:05;;;;;;;7.75;1.55;;;7.60;99.90;;;;;;7374386;32;20304;-60
2022/11/23 18:09:08;;;;;;;5.55;1.80;;;7.50;99.90;;;;;;7364985;32;20106;-59
2022/11/23 18:13:09;;;;;;;3.35;1.40;;;7.40;99.90;;;;;;7363941;32;20535;-59
2022/11/23 18:17:11;;;;;;;5.60;1.02;;;7.30;99.90;;;;;;7370584;32;20103;-59
2022/11/23 18:21:13;;;;;;;4.57;1.62;;;7.30;99.90;;;;;;7366491;32;20107;-59
2022/11/23 18:25:15;;;;;;;5.07;1.50;;;7.20;99.90;;;;;;7371969;32;20198;-59
2022/11/23 18:29:17;;;;;;;5.00;1.33;;;7.20;99.90;;;;;;7369846;32;20094;-59
2022/11/23 18:33:19;;;;;;;6.60;1.98;;;7.20;99.90;;;;;;7372090;32;20107;-59
2022/11/23 18:37:21;;;;;;;4.72;1.33;;;7.20;99.90;;;;;;7369921;32;20204;-59
2022/11/23 18:41:23;;;;;;;5.55;1.10;;;7.20;99.90;;;;;;7369000;32;20203;-60
2022/11/23 18:45:24;;;;;;;2.50;0.98;;;7.20;99.90;;;;;;7365264;32;20597;-58
2022/11/23 18:49:26;;;;;;;4.47;1.00;;;7.10;99.90;;;;;;7368598;32;20175;-59
2022/11/23 18:53:29;;;;;;;2.50;1.15;;;7.20;99.90;;;;;;7372646;32;20190;-59
2022/11/23 18:57:31;;;;;;;5.40;1.20;;;7.20;99.90;;;;;;7368473;32;20117;-58
2022/11/23 19:01:32;;;;;;;4.40;1.40;;;7.20;99.90;;;;;;7364018;32;20154;-59
2022/11/23 19:05:35;;;;;;;5.40;1.95;;;7.10;99.90;;;;;;7368849;32;20264;-58
2022/11/23 19:09:37;;;;;;;5.82;1.83;;;7.10;99.90;;;;;;7369356;32;20565;-59
2022/11/23 19:13:39;;;;;;;5.68;2.50;;;7.20;99.90;;;;;;7370823;32;20126;-59
2022/11/23 19:17:41;;;;;;;10.32;3.45;;;7.30;99.90;;;;;;7363316;32;20743;-59
2022/11/23 19:21:43;;;;;;;7.87;3.33;;;7.30;99.90;;;;;;7362250;32;20107;-59
2022/11/23 19:25:45;;;;;;;9.82;3.85;;;7.30;99.90;;;;;;7365034;32;20225;-59
2022/11/23 19:29:49;;;;;;;7.68;3.55;;;7.40;99.90;;;;;;7367245;32;20145;-60
2022/11/23 19:33:53;;;;;;;12.00;4.68;;;7.40;99.90;;;;;;7362750;32;20096;-61
2022/11/23 19:37:55;;;;;;;9.57;4.62;;;7.40;99.90;;;;;;7368219;32;20270;-60
2022/11/23 19:41:57;;;;;;;11.23;4.40;;;7.40;99.90;;;;;;7363963;32;20234;-62
2022/11/23 19:46:03;;;;;;;9.68;4.00;;;7.40;99.90;;;;;;7366606;32;20683;-61
2022/11/23 19:50:05;;;;;;;10.70;4.40;;;7.30;99.90;;;;;;7365605;32;20133;-58
2022/11/23 19:54:08;;;;;;;10.32;4.53;;;7.30;99.90;;;;;;7370539;32;20110;-59
2022/11/23 19:58:10;;;;;;;8.27;3.72;;;7.20;99.90;;;;;;7368776;32;20295;-59
2022/11/23 20:02:22;;;;;;;9.57;4.15;;;7.10;99.90;;;;;;7365614;32;20103;-60
2022/11/23 20:06:28;;;;;;;6.55;3.35;;;7.10;99.90;;;;;;7377244;32;20210;-59
2022/11/23 20:10:30;;;;;;;9.37;3.57;;;7.10;99.90;;;;;;7377907;32;20116;-59
2022/11/23 20:14:32;;;;;;;9.52;3.58;;;7.10;99.90;;;;;;7380628;32;20107;-60
2022/11/23 20:18:34;;;;;;;6.55;3.25;;;6.90;99.90;;;;;;7378357;32;20103;-60
2022/11/23 20:22:35;;;;;;;7.25;3.60;;;6.80;99.90;;;;;;7376587;32;20194;-59
2022/11/23 20:26:38;;;;;;;9.52;3.28;;;6.80;99.90;;;;;;7378667;32;20206;-60
2022/11/23 20:30:41;;;;;;;11.20;3.62;;;6.70;99.90;;;;;;7381641;32;20236;-60
2022/11/23 20:34:42;;;;;;;9.20;4.43;;;6.70;99.90;;;;;;7372676;32;20272;-60
2022/11/23 20:38:45;;;;;;;10.90;3.97;;;6.70;99.90;;;;;;7371857;32;20118;-59
2022/11/23 20:42:47;;;;;;;12.70;4.15;;;6.60;99.90;;;;;;7373188;32;20102;-59
2022/11/23 20:46:48;;;;;;;13.23;4.50;;;6.50;99.90;;;;;;7371235;32;20126;-59
2022/11/23 20:51:07;;;;;;;9.85;3.87;;;6.50;99.90;;;;;;7376016;32;20837;-59
2022/11/23 20:55:11;;;;;;;10.98;4.15;;;6.40;99.90;;;;;;7373027;32;20168;-59
2022/11/23 20:59:13;;;;;;;11.23;4.60;;;6.40;99.90;;;;;;7377468;32;20114;-60
2022/11/23 21:03:14;;;;;;;10.45;4.22;;;6.30;99.90;;;;;;7372171;32;20138;-60
2022/11/23 21:07:16;;;;;;;9.00;4.03;;;6.30;99.90;;;;;;7378621;32;20207;-60
2022/11/23 21:15:43;;;;;;;9.40;4.53;;;6.20;99.90;;;;;;7372640;32;20463;-59
2022/11/23 21:19:45;;;;;;;7.50;4.50;;;6.20;99.90;;;;;;7375600;32;20971;-60
2022/11/23 21:23:47;;;;;;;11.10;4.85;;;6.10;99.90;;;;;;7378403;32;20133;-61
2022/11/23 21:27:53;;;;;;;13.57;4.70;;;6.10;99.90;;;;;;7372084;32;20107;-59
2022/11/23 21:31:55;;;;;;;10.45;4.70;;;6.10;99.90;;;;;;7374327;32;20207;-59
2022/11/23 21:36:01;;;;;;;10.32;5.12;;;6.10;99.90;;;;;;7373739;32;20112;-61
2022/11/23 21:40:03;;;;;;;8.80;5.20;;;6.00;99.90;;;;;;7372212;32;20543;-60